sensor_id;sensor_type;location;lat;lon;timestamp;P1;durP1;ratioP1;P2;durP2;ratioP2
42886;SDS011;29032;56.028;92.904;2022-12-20T00:00:32;18.60;;;7.77;;
42886;SDS011;29032;56.028;92.904;2022-12-20T00:05:36;13.57;;;7.20;;
42886;SDS011;29032;56.028;92.904;2022-12-20T00:10:39;14.67;;;7.80;;
42886;SDS011;29032;56.028;92.904;2022-12-20T00:15:43;13.57;;;6.67;;
42886;SDS011;29032;56.028;92.904;2022-12-20T00:20:46;13.67;;;7.70;;
42886;SDS011;29032;56.028;92.904;2022-12-20T00:25:48;15.63;;;8.57;;
42886;SDS011;29032;56.028;92.904;2022-12-20T00:30:52;21.67;;;10.10;;
42886;SDS011;29032;56.028;92.904;2022-12-20T00:35:56;20.80;;;10.20;;
42886;SDS011;29032;56.028;92.904;2022-12-20T00:40:59;21.13;;;10.10;;
42886;SDS011;29032;56.028;92.904;2022-12-20T00:46:02;16.00;;;9.13;;
42886;SDS011;29032;56.028;92.904;2022-12-20T00:51:08;17.60;;;9.73;;
42886;SDS011;29032;56.028;92.904;2022-12-20T00:56:13;38.23;;;17.43;;
42886;SDS011;29032;56.028;92.904;2022-12-20T01:01:16;47.70;;;19.67;;
42886;SDS011;29032;56.028;92.904;2022-12-20T01:06:24;38.57;;;17.87;;
42886;SDS011;29032;56.028;92.904;2022-12-20T01:11:27;58.43;;;22.60;;
42886;SDS011;29032;56.028;92.904;2022-12-20T01:16:31;85.23;;;30.53;;
42886;SDS011;29032;56.028;92.904;2022-12-20T01:21:36;76.30;;;29.60;;
42886;SDS011;29032;56.028;92.904;2022-12-20T01:26:38;79.53;;;30.50;;
42886;SDS011;29032;56.028;92.904;2022-12-20T01:31:40;94.17;;;33.73;;
42886;SDS011;29032;56.028;92.904;2022-12-20T01:36:44;88.13;;;33.67;;
42886;SDS011;29032;56.028;92.904;2022-12-20T01:41:46;78.00;;;29.63;;
42886;SDS011;29032;56.028;92.904;2022-12-20T01:46:49;89.60;;;35.13;;
42886;SDS011;29032;56.028;92.904;2022-12-20T01:51:54;85.83;;;36.07;;
42886;SDS011;29032;56.028;92.904;2022-12-20T01:57:01;58.53;;;26.13;;
42886;SDS011;29032;56.028;92.904;2022-12-20T02:02:06;69.27;;;27.97;;
42886;SDS011;29032;56.028;92.904;2022-12-20T02:07:14;54.17;;;22.67;;
42886;SDS011;29032;56.028;92.904;2022-12-20T02:12:21;41.67;;;19.03;;
42886;SDS011;29032;56.028;92.904;2022-12-20T02:17:27;34.63;;;16.43;;
42886;SDS011;29032;56.028;92.904;2022-12-20T02:22:41;29.70;;;14.27;;
42886;SDS011;29032;56.028;92.904;2022-12-20T02:27:59;26.60;;;12.03;;
42886;SDS011;29032;56.028;92.904;2022-12-20T02:33:06;24.43;;;11.10;;
42886;SDS011;29032;56.028;92.904;2022-12-20T02:38:25;29.40;;;12.13;;
42886;SDS011;29032;56.028;92.904;2022-12-20T02:43:29;24.93;;;11.03;;
42886;SDS011;29032;56.028;92.904;2022-12-20T02:48:34;23.00;;;11.80;;
42886;SDS011;29032;56.028;92.904;2022-12-20T02:53:40;27.45;;;13.45;;
42886;SDS011;29032;56.028;92.904;2022-12-20T02:58:44;28.13;;;13.30;;
42886;SDS011;29032;56.028;92.904;2022-12-20T03:03:53;27.13;;;12.63;;
42886;SDS011;29032;56.028;92.904;2022-12-20T03:08:57;23.40;;;10.17;;
42886;SDS011;29032;56.028;92.904;2022-12-20T03:14:02;28.03;;;11.80;;
42886;SDS011;29032;56.028;92.904;2022-12-20T03:19:06;29.47;;;12.10;;
42886;SDS011;29032;56.028;92.904;2022-12-20T03:24:08;34.57;;;15.77;;
42886;SDS011;29032;56.028;92.904;2022-12-20T03:29:10;44.57;;;20.03;;
42886;SDS011;29032;56.028;92.904;2022-12-20T03:34:14;42.57;;;18.87;;
42886;SDS011;29032;56.028;92.904;2022-12-20T03:39:16;47.53;;;21.80;;
42886;SDS011;29032;56.028;92.904;2022-12-20T03:44:19;46.43;;;20.87;;
42886;SDS011;29032;56.028;92.904;2022-12-20T03:49:22;48.53;;;22.70;;
42886;SDS011;29032;56.028;92.904;2022-12-20T03:54:26;45.70;;;21.27;;
42886;SDS011;29032;56.028;92.904;2022-12-20T03:59:40;49.80;;;23.63;;
42886;SDS011;29032;56.028;92.904;2022-12-20T04:04:47;54.47;;;26.60;;
42886;SDS011;29032;56.028;92.904;2022-12-20T04:09:49;61.10;;;27.10;;
42886;SDS011;29032;56.028;92.904;2022-12-20T04:14:51;57.87;;;24.27;;
42886;SDS011;29032;56.028;92.904;2022-12-20T04:19:55;49.50;;;22.50;;
42886;SDS011;29032;56.028;92.904;2022-12-20T04:24:57;49.77;;;21.50;;
42886;SDS011;29032;56.028;92.904;2022-12-20T04:30:03;54.87;;;23.23;;
42886;SDS011;29032;56.028;92.904;2022-12-20T04:35:08;51.13;;;23.00;;
42886;SDS011;29032;56.028;92.904;2022-12-20T04:40:15;58.53;;;26.37;;
42886;SDS011;29032;56.028;92.904;2022-12-20T04:45:21;57.10;;;24.95;;
42886;SDS011;29032;56.028;92.904;2022-12-20T04:50:27;58.03;;;23.60;;
42886;SDS011;29032;56.028;92.904;2022-12-20T04:55:29;60.03;;;28.47;;
42886;SDS011;29032;56.028;92.904;2022-12-20T05:00:33;52.83;;;26.23;;
42886;SDS011;29032;56.028;92.904;2022-12-20T05:05:45;42.77;;;20.40;;
42886;SDS011;29032;56.028;92.904;2022-12-20T05:10:48;42.73;;;19.23;;
42886;SDS011;29032;56.028;92.904;2022-12-20T05:15:50;46.57;;;20.63;;
42886;SDS011;29032;56.028;92.904;2022-12-20T05:20:59;43.67;;;20.52;;
42886;SDS011;29032;56.028;92.904;2022-12-20T05:26:02;57.10;;;24.30;;
42886;SDS011;29032;56.028;92.904;2022-12-20T05:31:04;54.07;;;22.37;;
42886;SDS011;29032;56.028;92.904;2022-12-20T05:36:11;60.97;;;25.77;;
42886;SDS011;29032;56.028;92.904;2022-12-20T05:41:13;59.47;;;25.90;;
42886;SDS011;29032;56.028;92.904;2022-12-20T05:46:17;59.10;;;26.50;;
42886;SDS011;29032;56.028;92.904;2022-12-20T05:51:35;54.43;;;24.10;;
42886;SDS011;29032;56.028;92.904;2022-12-20T05:56:49;47.50;;;22.43;;
42886;SDS011;29032;56.028;92.904;2022-12-20T06:01:56;49.60;;;23.45;;
42886;SDS011;29032;56.028;92.904;2022-12-20T06:07:00;41.77;;;20.70;;
42886;SDS011;29032;56.028;92.904;2022-12-20T06:12:04;47.73;;;20.13;;
42886;SDS011;29032;56.028;92.904;2022-12-20T06:17:08;50.03;;;23.37;;
42886;SDS011;29032;56.028;92.904;2022-12-20T06:22:12;61.67;;;29.13;;
42886;SDS011;29032;56.028;92.904;2022-12-20T06:27:20;62.47;;;29.37;;
42886;SDS011;29032;56.028;92.904;2022-12-20T06:32:32;65.40;;;31.17;;
42886;SDS011;29032;56.028;92.904;2022-12-20T06:37:36;68.07;;;29.27;;
42886;SDS011;29032;56.028;92.904;2022-12-20T06:42:38;62.63;;;29.90;;
42886;SDS011;29032;56.028;92.904;2022-12-20T06:47:41;67.77;;;31.17;;
42886;SDS011;29032;56.028;92.904;2022-12-20T06:52:45;62.77;;;27.90;;
42886;SDS011;29032;56.028;92.904;2022-12-20T06:57:47;69.30;;;28.50;;
42886;SDS011;29032;56.028;92.904;2022-12-20T07:02:50;59.23;;;29.77;;
42886;SDS011;29032;56.028;92.904;2022-12-20T07:07:54;67.00;;;29.77;;
42886;SDS011;29032;56.028;92.904;2022-12-20T07:12:56;57.67;;;29.17;;
42886;SDS011;29032;56.028;92.904;2022-12-20T07:17:58;55.73;;;26.13;;
42886;SDS011;29032;56.028;92.904;2022-12-20T07:23:01;52.47;;;21.80;;
42886;SDS011;29032;56.028;92.904;2022-12-20T07:28:04;56.30;;;24.77;;
42886;SDS011;29032;56.028;92.904;2022-12-20T07:33:06;57.70;;;25.90;;
42886;SDS011;29032;56.028;92.904;2022-12-20T07:38:10;53.67;;;25.70;;
42886;SDS011;29032;56.028;92.904;2022-12-20T07:43:12;49.00;;;24.47;;
42886;SDS011;29032;56.028;92.904;2022-12-20T07:48:14;52.33;;;26.40;;
42886;SDS011;29032;56.028;92.904;2022-12-20T07:53:19;72.20;;;29.20;;
42886;SDS011;29032;56.028;92.904;2022-12-20T07:58:22;70.70;;;30.47;;
42886;SDS011;29032;56.028;92.904;2022-12-20T08:03:25;57.60;;;26.70;;
42886;SDS011;29032;56.028;92.904;2022-12-20T08:08:32;49.27;;;24.30;;
42886;SDS011;29032;56.028;92.904;2022-12-20T08:13:36;45.17;;;24.80;;
42886;SDS011;29032;56.028;92.904;2022-12-20T08:18:39;52.07;;;24.57;;
42886;SDS011;29032;56.028;92.904;2022-12-20T08:23:43;59.40;;;27.67;;
42886;SDS011;29032;56.028;92.904;2022-12-20T08:28:45;53.53;;;24.80;;
42886;SDS011;29032;56.028;92.904;2022-12-20T08:33:47;59.57;;;25.00;;
42886;SDS011;29032;56.028;92.904;2022-12-20T08:38:51;51.57;;;24.70;;
42886;SDS011;29032;56.028;92.904;2022-12-20T08:43:53;61.83;;;26.93;;
42886;SDS011;29032;56.028;92.904;2022-12-20T08:48:55;58.70;;;27.33;;
42886;SDS011;29032;56.028;92.904;2022-12-20T08:53:59;60.47;;;27.30;;
42886;SDS011;29032;56.028;92.904;2022-12-20T08:59:01;56.13;;;26.33;;
42886;SDS011;29032;56.028;92.904;2022-12-20T09:04:03;58.07;;;28.20;;
42886;SDS011;29032;56.028;92.904;2022-12-20T09:09:07;59.60;;;28.20;;
42886;SDS011;29032;56.028;92.904;2022-12-20T09:14:09;60.83;;;27.77;;
42886;SDS011;29032;56.028;92.904;2022-12-20T09:19:12;57.53;;;26.60;;
42886;SDS011;29032;56.028;92.904;2022-12-20T09:24:16;61.50;;;27.67;;
42886;SDS011;29032;56.028;92.904;2022-12-20T09:29:18;53.13;;;28.07;;
42886;SDS011;29032;56.028;92.904;2022-12-20T09:34:20;60.77;;;28.17;;
42886;SDS011;29032;56.028;92.904;2022-12-20T09:39:24;68.43;;;29.70;;
42886;SDS011;29032;56.028;92.904;2022-12-20T09:44:27;60.73;;;28.63;;
42886;SDS011;29032;56.028;92.904;2022-12-20T09:49:32;63.27;;;29.30;;
42886;SDS011;29032;56.028;92.904;2022-12-20T09:54:38;59.57;;;27.93;;
42886;SDS011;29032;56.028;92.904;2022-12-20T09:59:49;57.23;;;24.97;;
42886;SDS011;29032;56.028;92.904;2022-12-20T10:04:52;57.50;;;24.40;;
42886;SDS011;29032;56.028;92.904;2022-12-20T10:10:01;64.50;;;25.57;;
42886;SDS011;29032;56.028;92.904;2022-12-20T10:15:17;58.97;;;25.33;;
42886;SDS011;29032;56.028;92.904;2022-12-20T10:25:32;59.40;;;25.47;;
42886;SDS011;29032;56.028;92.904;2022-12-20T10:30:35;52.90;;;24.07;;
42886;SDS011;29032;56.028;92.904;2022-12-20T10:35:38;54.07;;;24.40;;
42886;SDS011;29032;56.028;92.904;2022-12-20T10:40:43;64.90;;;25.60;;
42886;SDS011;29032;56.028;92.904;2022-12-20T10:45:54;69.90;;;30.60;;
42886;SDS011;29032;56.028;92.904;2022-12-20T10:50:58;101.63;;;38.37;;
42886;SDS011;29032;56.028;92.904;2022-12-20T10:56:12;103.20;;;37.60;;
42886;SDS011;29032;56.028;92.904;2022-12-20T11:01:20;95.70;;;39.30;;
42886;SDS011;29032;56.028;92.904;2022-12-20T11:06:25;104.00;;;44.73;;
42886;SDS011;29032;56.028;92.904;2022-12-20T11:11:31;128.90;;;49.93;;
42886;SDS011;29032;56.028;92.904;2022-12-20T11:16:35;139.87;;;52.10;;
42886;SDS011;29032;56.028;92.904;2022-12-20T11:21:41;127.93;;;52.63;;
42886;SDS011;29032;56.028;92.904;2022-12-20T11:26:53;140.73;;;54.40;;
42886;SDS011;29032;56.028;92.904;2022-12-20T11:32:05;134.63;;;54.07;;
42886;SDS011;29032;56.028;92.904;2022-12-20T11:37:17;136.30;;;52.80;;
42886;SDS011;29032;56.028;92.904;2022-12-20T11:42:23;117.17;;;47.27;;
42886;SDS011;29032;56.028;92.904;2022-12-20T11:47:46;112.13;;;45.87;;
42886;SDS011;29032;56.028;92.904;2022-12-20T11:53:03;80.63;;;33.73;;
42886;SDS011;29032;56.028;92.904;2022-12-20T11:58:12;64.43;;;29.73;;
42886;SDS011;29032;56.028;92.904;2022-12-20T12:03:22;56.70;;;27.77;;
42886;SDS011;29032;56.028;92.904;2022-12-20T12:08:30;60.03;;;25.90;;
42886;SDS011;29032;56.028;92.904;2022-12-20T12:13:42;58.70;;;24.27;;
42886;SDS011;29032;56.028;92.904;2022-12-20T12:18:44;51.83;;;22.40;;
42886;SDS011;29032;56.028;92.904;2022-12-20T12:23:49;54.03;;;23.93;;
42886;SDS011;29032;56.028;92.904;2022-12-20T12:29:03;55.17;;;25.37;;
42886;SDS011;29032;56.028;92.904;2022-12-20T12:34:13;61.30;;;28.03;;
42886;SDS011;29032;56.028;92.904;2022-12-20T12:45:12;60.63;;;26.87;;
42886;SDS011;29032;56.028;92.904;2022-12-20T12:50:21;64.90;;;29.47;;
42886;SDS011;29032;56.028;92.904;2022-12-20T12:55:36;70.43;;;32.28;;
42886;SDS011;29032;56.028;92.904;2022-12-20T13:00:48;78.72;;;33.38;;
42886;SDS011;29032;56.028;92.904;2022-12-20T13:05:51;74.50;;;35.20;;
42886;SDS011;29032;56.028;92.904;2022-12-20T13:10:57;82.63;;;36.93;;
42886;SDS011;29032;56.028;92.904;2022-12-20T13:16:08;81.73;;;37.10;;
42886;SDS011;29032;56.028;92.904;2022-12-20T13:26:48;85.27;;;37.07;;
42886;SDS011;29032;56.028;92.904;2022-12-20T13:31:54;87.50;;;38.87;;
42886;SDS011;29032;56.028;92.904;2022-12-20T13:36:57;72.07;;;33.30;;
42886;SDS011;29032;56.028;92.904;2022-12-20T13:47:37;50.75;;;23.88;;
42886;SDS011;29032;56.028;92.904;2022-12-20T13:52:45;41.50;;;21.08;;
42886;SDS011;29032;56.028;92.904;2022-12-20T13:57:48;51.07;;;22.73;;
42886;SDS011;29032;56.028;92.904;2022-12-20T14:02:53;51.90;;;22.77;;
42886;SDS011;29032;56.028;92.904;2022-12-20T14:07:57;46.93;;;22.60;;
42886;SDS011;29032;56.028;92.904;2022-12-20T14:13:01;41.03;;;21.20;;
42886;SDS011;29032;56.028;92.904;2022-12-20T14:18:14;46.80;;;22.23;;
42886;SDS011;29032;56.028;92.904;2022-12-20T14:23:19;56.07;;;24.03;;
42886;SDS011;29032;56.028;92.904;2022-12-20T14:28:26;51.90;;;25.23;;
42886;SDS011;29032;56.028;92.904;2022-12-20T14:33:34;47.70;;;22.67;;
42886;SDS011;29032;56.028;92.904;2022-12-20T14:38:38;47.75;;;23.38;;
42886;SDS011;29032;56.028;92.904;2022-12-20T14:43:42;55.67;;;24.53;;
42886;SDS011;29032;56.028;92.904;2022-12-20T14:48:46;51.37;;;23.47;;
42886;SDS011;29032;56.028;92.904;2022-12-20T14:53:48;51.23;;;23.27;;
42886;SDS011;29032;56.028;92.904;2022-12-20T14:59:00;47.43;;;23.30;;
42886;SDS011;29032;56.028;92.904;2022-12-20T15:04:19;56.90;;;26.60;;
42886;SDS011;29032;56.028;92.904;2022-12-20T15:09:24;70.25;;;28.20;;
42886;SDS011;29032;56.028;92.904;2022-12-20T15:14:31;67.57;;;28.03;;
42886;SDS011;29032;56.028;92.904;2022-12-20T15:19:37;59.27;;;25.70;;
42886;SDS011;29032;56.028;92.904;2022-12-20T15:24:39;51.47;;;22.60;;
42886;SDS011;29032;56.028;92.904;2022-12-20T15:29:41;51.97;;;21.80;;
42886;SDS011;29032;56.028;92.904;2022-12-20T15:34:45;45.37;;;21.73;;
42886;SDS011;29032;56.028;92.904;2022-12-20T15:39:47;44.53;;;20.97;;
42886;SDS011;29032;56.028;92.904;2022-12-20T15:44:49;38.77;;;17.47;;
42886;SDS011;29032;56.028;92.904;2022-12-20T15:49:53;41.43;;;18.43;;
42886;SDS011;29032;56.028;92.904;2022-12-20T15:54:55;36.20;;;16.30;;
42886;SDS011;29032;56.028;92.904;2022-12-20T15:59:57;33.13;;;16.10;;
42886;SDS011;29032;56.028;92.904;2022-12-20T16:05:01;31.07;;;14.70;;
42886;SDS011;29032;56.028;92.904;2022-12-20T16:10:03;30.60;;;14.57;;
42886;SDS011;29032;56.028;92.904;2022-12-20T16:15:08;26.47;;;12.60;;
42886;SDS011;29032;56.028;92.904;2022-12-20T16:20:20;26.60;;;13.53;;
42886;SDS011;29032;56.028;92.904;2022-12-20T16:25:24;27.67;;;14.87;;
42886;SDS011;29032;56.028;92.904;2022-12-20T16:30:28;28.50;;;14.17;;
42886;SDS011;29032;56.028;92.904;2022-12-20T16:35:34;31.53;;;13.57;;
42886;SDS011;29032;56.028;92.904;2022-12-20T16:40:36;30.23;;;13.87;;
42886;SDS011;29032;56.028;92.904;2022-12-20T16:45:38;27.63;;;13.70;;
42886;SDS011;29032;56.028;92.904;2022-12-20T16:50:42;29.07;;;12.97;;
42886;SDS011;29032;56.028;92.904;2022-12-20T16:55:44;29.60;;;13.10;;
42886;SDS011;29032;56.028;92.904;2022-12-20T17:00:46;31.30;;;14.37;;
42886;SDS011;29032;56.028;92.904;2022-12-20T17:05:50;28.90;;;14.30;;
42886;SDS011;29032;56.028;92.904;2022-12-20T17:16:16;38.93;;;16.00;;
42886;SDS011;29032;56.028;92.904;2022-12-20T17:21:22;33.23;;;16.07;;
42886;SDS011;29032;56.028;92.904;2022-12-20T17:26:29;39.20;;;17.07;;
42886;SDS011;29032;56.028;92.904;2022-12-20T17:31:32;39.90;;;15.90;;
42886;SDS011;29032;56.028;92.904;2022-12-20T17:36:36;37.90;;;17.60;;
42886;SDS011;29032;56.028;92.904;2022-12-20T17:41:38;40.17;;;17.90;;
42886;SDS011;29032;56.028;92.904;2022-12-20T17:46:41;40.30;;;17.20;;
42886;SDS011;29032;56.028;92.904;2022-12-20T17:51:45;34.60;;;16.60;;
42886;SDS011;29032;56.028;92.904;2022-12-20T17:56:47;38.93;;;17.10;;
42886;SDS011;29032;56.028;92.904;2022-12-20T18:01:50;38.67;;;17.53;;
42886;SDS011;29032;56.028;92.904;2022-12-20T18:06:53;45.10;;;20.30;;
42886;SDS011;29032;56.028;92.904;2022-12-20T18:11:55;44.60;;;20.47;;
42886;SDS011;29032;56.028;92.904;2022-12-20T18:16:58;49.27;;;23.03;;
42886;SDS011;29032;56.028;92.904;2022-12-20T18:22:01;48.50;;;21.53;;
42886;SDS011;29032;56.028;92.904;2022-12-20T18:27:04;47.83;;;20.93;;
42886;SDS011;29032;56.028;92.904;2022-12-20T18:32:06;48.60;;;21.03;;
42886;SDS011;29032;56.028;92.904;2022-12-20T18:37:09;39.37;;;19.03;;
42886;SDS011;29032;56.028;92.904;2022-12-20T18:42:11;30.60;;;13.80;;
42886;SDS011;29032;56.028;92.904;2022-12-20T18:47:14;27.57;;;12.97;;
42886;SDS011;29032;56.028;92.904;2022-12-20T18:52:17;28.87;;;14.37;;
42886;SDS011;29032;56.028;92.904;2022-12-20T18:57:20;29.87;;;13.60;;
42886;SDS011;29032;56.028;92.904;2022-12-20T19:02:22;17.37;;;9.67;;
42886;SDS011;29032;56.028;92.904;2022-12-20T19:07:25;13.97;;;6.60;;
42886;SDS011;29032;56.028;92.904;2022-12-20T19:12:28;9.80;;;5.40;;
42886;SDS011;29032;56.028;92.904;2022-12-20T19:17:30;10.73;;;5.53;;
42886;SDS011;29032;56.028;92.904;2022-12-20T19:22:33;12.37;;;6.10;;
42886;SDS011;29032;56.028;92.904;2022-12-20T19:27:36;16.37;;;7.07;;
42886;SDS011;29032;56.028;92.904;2022-12-20T19:32:38;14.90;;;6.80;;
42886;SDS011;29032;56.028;92.904;2022-12-20T19:37:41;12.13;;;5.87;;
42886;SDS011;29032;56.028;92.904;2022-12-20T19:42:43;9.30;;;4.97;;
42886;SDS011;29032;56.028;92.904;2022-12-20T19:47:46;10.50;;;5.67;;
42886;SDS011;29032;56.028;92.904;2022-12-20T19:52:49;7.20;;;4.00;;
42886;SDS011;29032;56.028;92.904;2022-12-20T19:58:24;7.93;;;3.90;;
42886;SDS011;29032;56.028;92.904;2022-12-20T20:03:26;8.20;;;4.07;;
42886;SDS011;29032;56.028;92.904;2022-12-20T20:08:30;5.67;;;3.20;;
42886;SDS011;29032;56.028;92.904;2022-12-20T20:13:32;6.23;;;3.80;;
42886;SDS011;29032;56.028;92.904;2022-12-20T20:18:35;6.47;;;3.70;;
42886;SDS011;29032;56.028;92.904;2022-12-20T20:28:45;5.47;;;3.67;;
42886;SDS011;29032;56.028;92.904;2022-12-20T20:33:47;8.07;;;4.10;;
42886;SDS011;29032;56.028;92.904;2022-12-20T20:38:51;7.73;;;4.33;;
42886;SDS011;29032;56.028;92.904;2022-12-20T20:43:53;6.93;;;3.70;;
42886;SDS011;29032;56.028;92.904;2022-12-20T20:48:56;6.83;;;3.70;;
42886;SDS011;29032;56.028;92.904;2022-12-20T20:53:59;4.97;;;3.40;;
42886;SDS011;29032;56.028;92.904;2022-12-20T20:59:01;6.40;;;4.27;;
42886;SDS011;29032;56.028;92.904;2022-12-20T21:04:04;5.90;;;4.27;;
42886;SDS011;29032;56.028;92.904;2022-12-20T21:09:07;6.93;;;4.40;;
42886;SDS011;29032;56.028;92.904;2022-12-20T21:14:10;12.07;;;5.50;;
42886;SDS011;29032;56.028;92.904;2022-12-20T21:19:12;10.93;;;5.20;;
42886;SDS011;29032;56.028;92.904;2022-12-20T21:24:16;7.77;;;4.37;;
42886;SDS011;29032;56.028;92.904;2022-12-20T21:29:18;5.87;;;4.07;;
42886;SDS011;29032;56.028;92.904;2022-12-20T21:34:20;6.13;;;4.03;;
42886;SDS011;29032;56.028;92.904;2022-12-20T21:39:24;8.23;;;4.40;;
42886;SDS011;29032;56.028;92.904;2022-12-20T21:44:26;7.00;;;3.97;;
42886;SDS011;29032;56.028;92.904;2022-12-20T21:49:28;9.13;;;4.13;;
42886;SDS011;29032;56.028;92.904;2022-12-20T21:54:32;6.07;;;3.97;;
42886;SDS011;29032;56.028;92.904;2022-12-20T21:59:34;6.77;;;4.93;;
42886;SDS011;29032;56.028;92.904;2022-12-20T22:04:36;11.60;;;4.53;;
42886;SDS011;29032;56.028;92.904;2022-12-20T22:09:40;8.53;;;4.67;;
42886;SDS011;29032;56.028;92.904;2022-12-20T22:14:42;7.93;;;4.40;;
42886;SDS011;29032;56.028;92.904;2022-12-20T22:19:44;7.53;;;5.00;;
42886;SDS011;29032;56.028;92.904;2022-12-20T22:24:48;8.67;;;4.30;;
42886;SDS011;29032;56.028;92.904;2022-12-20T22:29:50;7.27;;;4.67;;
42886;SDS011;29032;56.028;92.904;2022-12-20T22:34:52;7.50;;;5.03;;
42886;SDS011;29032;56.028;92.904;2022-12-20T22:40:02;7.93;;;4.30;;
42886;SDS011;29032;56.028;92.904;2022-12-20T22:45:06;8.00;;;4.73;;
42886;SDS011;29032;56.028;92.904;2022-12-20T22:50:09;8.77;;;5.13;;
42886;SDS011;29032;56.028;92.904;2022-12-20T22:55:13;6.73;;;4.40;;
42886;SDS011;29032;56.028;92.904;2022-12-20T23:00:16;10.03;;;4.80;;
42886;SDS011;29032;56.028;92.904;2022-12-20T23:05:18;9.30;;;5.00;;
42886;SDS011;29032;56.028;92.904;2022-12-20T23:10:21;10.20;;;4.67;;
42886;SDS011;29032;56.028;92.904;2022-12-20T23:15:23;6.37;;;4.73;;
42886;SDS011;29032;56.028;92.904;2022-12-20T23:20:26;7.47;;;4.10;;
42886;SDS011;29032;56.028;92.904;2022-12-20T23:25:29;6.57;;;3.80;;
42886;SDS011;29032;56.028;92.904;2022-12-20T23:30:31;9.33;;;4.87;;
42886;SDS011;29032;56.028;92.904;2022-12-20T23:35:33;7.30;;;3.97;;
42886;SDS011;29032;56.028;92.904;2022-12-20T23:40:40;6.63;;;4.13;;
42886;SDS011;29032;56.028;92.904;2022-12-20T23:45:42;6.13;;;3.60;;
42886;SDS011;29032;56.028;92.904;2022-12-20T23:50:44;7.37;;;4.73;;
42886;SDS011;29032;56.028;92.904;2022-12-20T23:55:57;5.53;;;3.77;;
